Time;durP1;ratioP1;P1;durP2;ratioP2;P2;SDS_P1;SDS_P2;PMS_P1;PMS_P2;Temp;Humidity;BMP_temperature;BMP_pressure;BME280_temperature;BME280_humidity;BME280_pressure;Samples;Min_cycle;Max_cycle;Signal;HPM_P1;HPM_P2
2021/10/18 00:02:03;;;;;;;7.32;6.63;;;7.80;77.90;;;;;;5075550;28;20272;-63
2021/10/18 00:04:30;;;;;;;9.35;7.07;;;7.80;77.60;;;;;;5075462;28;20311;-63
2021/10/18 00:06:57;;;;;;;10.13;7.47;;;7.70;78.20;;;;;;5075600;28;20194;-63
2021/10/18 00:09:24;;;;;;;9.05;7.65;;;7.70;78.80;;;;;;5075065;28;20309;-63
2021/10/18 00:11:51;;;;;;;13.75;7.68;;;7.70;78.40;;;;;;5075620;28;20281;-63
2021/10/18 00:14:19;;;;;;;11.43;7.40;;;7.70;78.30;;;;;;5075366;28;20190;-63
2021/10/18 00:16:47;;;;;;;8.57;6.85;;;7.70;78.00;;;;;;5075523;28;20225;-64
2021/10/18 00:19:15;;;;;;;8.43;6.97;;;7.70;77.40;;;;;;5075410;28;20244;-63
2021/10/18 00:21:42;;;;;;;10.98;8.00;;;7.70;77.50;;;;;;5075344;28;20280;-64
2021/10/18 00:24:09;;;;;;;11.05;7.72;;;7.70;77.80;;;;;;5075390;28;20276;-64
2021/10/18 00:26:36;;;;;;;9.65;7.47;;;7.60;77.80;;;;;;5075375;28;20304;-63
2021/10/18 00:29:03;;;;;;;10.63;7.30;;;7.60;77.90;;;;;;5075165;28;20221;-63
2021/10/18 00:31:32;;;;;;;10.85;7.68;;;7.50;77.30;;;;;;5074944;28;20646;-63
2021/10/18 00:34:03;;;;;;;6.03;5.25;;;7.40;77.60;;;;;;5075074;28;20281;-64
2021/10/18 00:36:30;;;;;;;8.13;7.15;;;7.30;76.00;;;;;;5075005;28;20233;-64
2021/10/18 00:38:57;;;;;;;8.65;6.40;;;7.20;76.70;;;;;;5075160;28;20288;-63
2021/10/18 00:41:24;;;;;;;17.55;7.43;;;7.20;77.60;;;;;;5075060;28;20609;-63
2021/10/18 00:43:53;;;;;;;8.20;6.45;;;7.20;77.80;;;;;;5074929;28;20236;-63
2021/10/18 00:46:22;;;;;;;7.15;5.85;;;7.20;77.10;;;;;;5074847;28;20309;-63
2021/10/18 00:48:55;;;;;;;8.32;6.40;;;7.20;77.20;;;;;;5074742;28;20197;-63
2021/10/18 00:51:27;;;;;;;11.27;6.50;;;7.10;77.30;;;;;;5074710;28;20273;-64
2021/10/18 00:53:56;;;;;;;8.05;6.93;;;7.20;78.10;;;;;;5074933;28;20288;-64
2021/10/18 00:56:24;;;;;;;9.05;7.72;;;7.20;77.60;;;;;;5074472;28;20284;-63
2021/10/18 00:58:59;;;;;;;8.88;6.50;;;7.10;77.40;;;;;;5074517;28;20237;-63
2021/10/18 01:01:26;;;;;;;10.20;7.60;;;7.00;77.80;;;;;;5074615;28;20225;-63
2021/10/18 01:03:56;;;;;;;9.98;6.88;;;7.00;78.20;;;;;;5074290;28;20276;-63
2021/10/18 01:06:24;;;;;;;8.00;6.35;;;6.90;79.10;;;;;;5074582;28;20308;-63
2021/10/18 01:08:57;;;;;;;8.38;7.15;;;6.90;79.90;;;;;;5074108;28;20308;-63
2021/10/18 01:11:25;;;;;;;6.65;5.10;;;7.00;80.00;;;;;;5074432;28;20277;-63
2021/10/18 01:13:52;;;;;;;8.00;6.40;;;7.00;79.60;;;;;;5074012;28;20290;-63
2021/10/18 01:16:19;;;;;;;11.70;7.05;;;7.00;79.20;;;;;;5074218;28;20667;-63
2021/10/18 01:18:46;;;;;;;7.30;5.88;;;7.00;78.70;;;;;;5074424;28;20272;-63
2021/10/18 01:21:17;;;;;;;9.68;6.13;;;7.10;78.70;;;;;;5074096;28;20281;-63
2021/10/18 01:23:45;;;;;;;9.10;6.72;;;7.00;78.90;;;;;;5073849;28;20225;-63
2021/10/18 01:26:12;;;;;;;8.13;5.72;;;7.10;78.60;;;;;;5074211;28;20256;-64
2021/10/18 01:28:39;;;;;;;8.85;6.38;;;7.00;77.90;;;;;;5074064;28;20276;-63
2021/10/18 01:31:06;;;;;;;7.75;5.97;;;7.00;78.60;;;;;;5073912;28;20285;-63
2021/10/18 01:33:33;;;;;;;7.78;6.07;;;7.00;78.80;;;;;;5073898;28;20194;-63
2021/10/18 01:36:00;;;;;;;7.18;6.40;;;7.00;79.60;;;;;;5073897;28;20272;-63
2021/10/18 01:38:28;;;;;;;9.70;6.32;;;7.00;79.80;;;;;;5073493;28;20282;-63
2021/10/18 01:40:55;;;;;;;7.43;6.07;;;7.00;80.20;;;;;;5073760;28;20284;-63
2021/10/18 01:43:22;;;;;;;7.63;4.93;;;6.90;80.60;;;;;;5073861;28;20189;-63
2021/10/18 01:45:49;;;;;;;8.50;6.63;;;6.90;80.50;;;;;;5073337;28;20222;-64
2021/10/18 01:48:16;;;;;;;7.78;6.38;;;7.00;80.30;;;;;;5073618;28;20197;-64
2021/10/18 01:50:43;;;;;;;6.22;5.35;;;7.00;80.50;;;;;;5073397;28;20236;-63
2021/10/18 01:53:10;;;;;;;8.40;6.40;;;7.00;80.70;;;;;;5073575;28;20277;-64
2021/10/18 01:55:39;;;;;;;7.63;5.55;;;7.00;80.70;;;;;;5073371;28;20262;-63
2021/10/18 01:58:06;;;;;;;6.47;4.93;;;7.00;80.00;;;;;;5073625;28;20470;-63
2021/10/18 02:00:33;;;;;;;8.55;5.82;;;7.00;80.50;;;;;;5073120;28;20224;-64
2021/10/18 02:03:00;;;;;;;10.60;6.18;;;7.00;79.80;;;;;;5073136;28;21284;-63
2021/10/18 02:05:27;;;;;;;7.35;5.82;;;6.90;79.20;;;;;;5073428;28;20399;-63
2021/10/18 02:07:54;;;;;;;5.93;5.20;;;6.90;79.80;;;;;;5073336;28;20278;-62
2021/10/18 02:10:21;;;;;;;7.75;6.10;;;6.80;78.60;;;;;;5073121;28;20565;-63
2021/10/18 02:12:51;;;;;;;9.02;5.60;;;6.80;77.90;;;;;;5073110;28;20185;-63
2021/10/18 02:15:18;;;;;;;6.95;5.20;;;6.80;78.30;;;;;;5072873;28;20229;-63
2021/10/18 02:17:49;;;;;;;7.28;4.93;;;6.70;78.60;;;;;;5073178;28;20272;-63
2021/10/18 02:20:18;;;;;;;7.65;6.05;;;6.70;79.20;;;;;;5073120;28;20197;-63
2021/10/18 02:22:45;;;;;;;9.27;5.35;;;6.60;79.40;;;;;;5073013;28;20289;-64
2021/10/18 02:25:13;;;;;;;6.35;5.18;;;6.60;79.60;;;;;;5072989;28;20232;-64
2021/10/18 02:27:40;;;;;;;9.02;5.57;;;6.60;79.80;;;;;;5072976;28;20281;-64
2021/10/18 02:30:15;;;;;;;7.35;5.18;;;6.60;79.80;;;;;;5072788;28;20299;-63
2021/10/18 02:32:57;;;;;;;6.10;4.80;;;6.60;79.90;;;;;;5073050;28;20280;-64
2021/10/18 02:35:24;;;;;;;4.85;4.35;;;6.60;79.90;;;;;;5072796;28;20615;-64
2021/10/18 02:37:51;;;;;;;5.15;4.07;;;6.60;79.80;;;;;;5073002;28;20277;-63
2021/10/18 02:40:18;;;;;;;6.90;5.22;;;6.60;79.80;;;;;;5072815;28;20579;-63
2021/10/18 02:42:45;;;;;;;6.95;4.55;;;6.70;80.00;;;;;;5072832;28;20280;-63
2021/10/18 02:45:14;;;;;;;6.05;4.40;;;6.60;79.40;;;;;;5072471;28;20280;-63
2021/10/18 02:47:41;;;;;;;7.45;5.28;;;6.60;78.80;;;;;;5072753;28;20280;-64
2021/10/18 02:50:09;;;;;;;7.90;5.05;;;6.60;79.00;;;;;;5072496;28;20276;-64
2021/10/18 02:52:36;;;;;;;6.57;4.82;;;6.60;78.70;;;;;;5072777;28;20194;-63
2021/10/18 02:55:03;;;;;;;5.97;4.38;;;6.60;78.70;;;;;;5072714;28;20289;-63
2021/10/18 02:57:30;;;;;;;5.90;4.18;;;6.50;78.50;;;;;;5072417;28;20225;-63
2021/10/18 02:59:57;;;;;;;5.53;4.40;;;6.50;78.80;;;;;;5072382;28;20300;-65
2021/10/18 03:02:26;;;;;;;6.00;4.20;;;6.40;78.90;;;;;;5072577;28;20296;-63
2021/10/18 03:04:59;;;;;;;6.35;5.25;;;6.40;78.70;;;;;;5072493;28;20557;-64
2021/10/18 03:07:26;;;;;;;6.78;5.25;;;6.30;78.70;;;;;;5072365;28;20304;-63
2021/10/18 03:09:53;;;;;;;5.63;4.10;;;6.30;78.90;;;;;;5072238;28;20674;-63
2021/10/18 03:12:20;;;;;;;6.60;4.72;;;6.30;79.10;;;;;;5072436;28;20216;-64
2021/10/18 03:14:48;;;;;;;5.28;4.25;;;6.30;79.30;;;;;;5073719;28;20280;-64
2021/10/18 03:17:17;;;;;;;5.75;5.15;;;6.30;79.30;;;;;;5076701;28;20277;-63
2021/10/18 03:19:45;;;;;;;5.97;4.60;;;6.30;79.40;;;;;;5076312;28;20244;-64
2021/10/18 03:22:12;;;;;;;8.60;6.32;;;6.30;79.70;;;;;;5076371;28;20185;-64
2021/10/18 03:24:39;;;;;;;10.98;5.55;;;6.30;80.10;;;;;;5076524;28;20240;-64
2021/10/18 03:27:06;;;;;;;8.57;4.70;;;6.20;80.70;;;;;;5076261;28;20304;-63
2021/10/18 03:29:33;;;;;;;5.90;5.20;;;6.30;81.10;;;;;;5076268;28;20232;-63
2021/10/18 03:32:02;;;;;;;7.45;5.70;;;6.30;81.30;;;;;;5076067;28;20292;-63
2021/10/18 03:34:29;;;;;;;6.90;4.68;;;6.40;81.80;;;;;;5076081;28;20277;-63
2021/10/18 03:36:57;;;;;;;5.35;4.35;;;6.50;81.60;;;;;;5076219;28;20285;-63
2021/10/18 03:39:24;;;;;;;6.82;5.70;;;6.50;81.30;;;;;;5076124;28;20584;-63
2021/10/18 03:41:56;;;;;;;10.65;6.97;;;6.50;81.00;;;;;;5076047;28;20235;-63
2021/10/18 03:44:23;;;;;;;12.57;7.45;;;6.50;80.90;;;;;;5076014;28;20289;-64
2021/10/18 03:46:50;;;;;;;8.90;7.22;;;6.40;81.00;;;;;;5075746;28;20261;-64
2021/10/18 03:49:17;;;;;;;9.10;6.45;;;6.40;80.20;;;;;;5076062;28;20588;-64
2021/10/18 03:51:45;;;;;;;13.50;9.82;;;6.40;80.30;;;;;;5075871;28;20189;-64
2021/10/18 03:54:13;;;;;;;10.13;6.22;;;6.40;81.50;;;;;;5075540;28;20212;-63
2021/10/18 03:56:40;;;;;;;6.47;5.07;;;6.40;82.40;;;;;;5075773;28;20232;-63
2021/10/18 03:59:07;;;;;;;10.02;5.00;;;6.30;82.20;;;;;;5075591;28;20272;-62
2021/10/18 04:01:34;;;;;;;5.65;5.03;;;6.30;82.70;;;;;;5075608;28;20281;-62
2021/10/18 04:04:01;;;;;;;6.47;4.63;;;6.30;82.90;;;;;;5075883;28;20628;-63
2021/10/18 04:06:29;;;;;;;9.07;5.57;;;6.30;83.50;;;;;;5075831;28;20226;-63
2021/10/18 04:08:57;;;;;;;7.55;5.05;;;6.40;83.50;;;;;;5075139;28;20312;-64
2021/10/18 04:11:25;;;;;;;12.50;6.22;;;6.40;83.80;;;;;;5074430;28;20652;-63
2021/10/18 04:13:53;;;;;;;17.38;7.28;;;6.40;83.70;;;;;;5074280;28;20194;-63
2021/10/18 04:16:20;;;;;;;11.25;6.80;;;6.50;84.00;;;;;;5074042;28;20656;-63
2021/10/18 04:18:47;;;;;;;9.38;6.15;;;6.50;83.70;;;;;;5074303;28;20225;-63
2021/10/18 04:21:14;;;;;;;9.93;6.40;;;6.60;83.20;;;;;;5074427;28;20190;-63
2021/10/18 04:23:41;;;;;;;8.60;6.80;;;6.60;82.80;;;;;;5074126;28;20225;-64
2021/10/18 04:26:08;;;;;;;11.18;5.95;;;6.60;82.60;;;;;;5073819;28;20309;-63
2021/10/18 04:28:36;;;;;;;8.90;7.68;;;6.70;82.40;;;;;;5074081;28;20281;-63
2021/10/18 04:31:03;;;;;;;11.95;8.15;;;6.70;82.20;;;;;;5074180;28;20280;-62
2021/10/18 04:33:32;;;;;;;10.05;6.65;;;6.70;82.10;;;;;;5074276;28;20742;-63
2021/10/18 04:36:00;;;;;;;15.00;7.03;;;6.70;82.00;;;;;;5074087;28;20241;-62
2021/10/18 04:38:27;;;;;;;9.90;6.82;;;6.70;81.70;;;;;;5074081;28;20190;-62
2021/10/18 04:40:54;;;;;;;10.05;5.80;;;6.70;81.50;;;;;;5074125;28;20708;-62
2021/10/18 04:43:22;;;;;;;6.13;4.57;;;6.60;81.70;;;;;;5073782;28;20232;-63
2021/10/18 04:45:51;;;;;;;8.10;4.63;;;6.60;81.50;;;;;;5073908;28;20194;-62
2021/10/18 04:48:19;;;;;;;7.80;5.07;;;6.60;81.40;;;;;;5073853;28;20616;-65
2021/10/18 04:50:46;;;;;;;7.20;5.05;;;6.50;81.30;;;;;;5074177;28;20607;-64
2021/10/18 04:53:13;;;;;;;10.32;5.68;;;6.50;81.30;;;;;;5073691;28;20281;-64
2021/10/18 04:55:40;;;;;;;8.65;5.70;;;6.50;81.60;;;;;;5074165;28;20196;-63
2021/10/18 04:58:12;;;;;;;7.97;6.00;;;6.50;81.80;;;;;;5073654;28;20225;-63
2021/10/18 05:00:44;;;;;;;5.25;4.50;;;6.60;82.20;;;;;;5073822;28;20281;-63
2021/10/18 05:03:13;;;;;;;7.30;4.65;;;6.60;82.30;;;;;;5073731;28;20232;-64
2021/10/18 05:05:40;;;;;;;4.88;3.95;;;6.50;82.20;;;;;;5073802;28;20225;-64
2021/10/18 05:08:09;;;;;;;8.13;4.65;;;6.50;82.70;;;;;;5073749;28;20352;-63
2021/10/18 05:10:37;;;;;;;5.23;3.77;;;6.50;83.00;;;;;;5033912;28;1155537;-63
2021/10/18 05:13:06;;;;;;;6.70;4.68;;;6.50;81.90;;;;;;5074419;28;20699;-63
2021/10/18 05:15:38;;;;;;;7.35;5.00;;;6.50;82.00;;;;;;5074588;28;20276;-63
2021/10/18 05:18:06;;;;;;;5.95;4.53;;;6.50;82.30;;;;;;5074523;28;20297;-63
2021/10/18 05:20:35;;;;;;;8.50;6.93;;;6.40;81.80;;;;;;5074502;28;20285;-63
2021/10/18 05:23:02;;;;;;;8.20;6.18;;;6.30;81.40;;;;;;5074422;28;20276;-63
2021/10/18 05:25:30;;;;;;;11.02;7.05;;;6.30;81.90;;;;;;5074019;28;20276;-63
2021/10/18 05:27:57;;;;;;;12.15;8.07;;;6.30;81.80;;;;;;5074445;28;20221;-63
2021/10/18 05:30:25;;;;;;;16.65;9.55;;;6.30;82.20;;;;;;5073851;28;20240;-63
2021/10/18 05:32:52;;;;;;;18.90;9.73;;;6.20;82.30;;;;;;5074072;28;20189;-62
2021/10/18 05:35:19;;;;;;;13.10;9.20;;;6.30;82.40;;;;;;5073872;28;20197;-63
2021/10/18 05:37:49;;;;;;;11.15;8.10;;;6.20;83.00;;;;;;5073061;28;20284;-62
2021/10/18 05:40:18;;;;;;;15.93;7.93;;;6.20;82.30;;;;;;5074214;28;20281;-62
2021/10/18 05:42:48;;;;;;;11.85;8.15;;;6.20;82.80;;;;;;5074085;28;20281;-62
2021/10/18 05:45:16;;;;;;;12.50;8.60;;;6.20;83.40;;;;;;5074042;28;20273;-63
2021/10/18 05:47:57;;;;;;;8.27;6.20;;;6.20;82.50;;;;;;5073772;28;20224;-63
2021/10/18 05:50:26;;;;;;;13.40;7.50;;;6.10;82.50;;;;;;5073372;28;20232;-62
2021/10/18 05:52:55;;;;;;;10.15;7.65;;;6.20;82.40;;;;;;5073744;28;20224;-63
2021/10/18 05:55:22;;;;;;;11.43;7.70;;;6.10;82.90;;;;;;5073698;28;20198;-62
2021/10/18 05:57:53;;;;;;;10.57;7.43;;;6.10;82.90;;;;;;5073541;28;20340;-62
2021/10/18 06:00:20;;;;;;;8.88;7.03;;;6.10;83.10;;;;;;5073400;28;20276;-64
2021/10/18 06:02:48;;;;;;;11.02;7.05;;;6.20;83.30;;;;;;5073407;28;20276;-63
2021/10/18 06:05:15;;;;;;;6.55;5.07;;;6.20;83.70;;;;;;5073372;28;20198;-64
2021/10/18 06:07:43;;;;;;;9.75;5.78;;;6.20;83.50;;;;;;5073252;28;20561;-63
2021/10/18 06:10:13;;;;;;;9.20;6.75;;;6.20;83.50;;;;;;5072978;28;20312;-63
2021/10/18 06:12:41;;;;;;;7.20;5.35;;;6.20;83.50;;;;;;5073472;28;20268;-63
2021/10/18 06:15:09;;;;;;;5.95;5.35;;;6.20;82.70;;;;;;5073254;28;20276;-63
2021/10/18 06:17:37;;;;;;;9.73;6.72;;;6.30;82.40;;;;;;5073233;28;20601;-62
2021/10/18 06:20:05;;;;;;;6.68;4.82;;;6.40;82.70;;;;;;5073238;28;20280;-66
2021/10/18 06:22:32;;;;;;;8.95;6.38;;;6.50;81.90;;;;;;5073118;28;20222;-62
2021/10/18 06:24:59;;;;;;;8.75;6.70;;;6.60;82.80;;;;;;5073087;28;20707;-62
2021/10/18 06:27:28;;;;;;;9.10;5.88;;;6.80;81.80;;;;;;5073001;28;20261;-63
2021/10/18 06:29:55;;;;;;;7.57;5.25;;;7.00;81.90;;;;;;5073019;28;20280;-63
2021/10/18 06:32:26;;;;;;;8.57;5.68;;;7.20;81.50;;;;;;5073052;28;20280;-63
2021/10/18 06:34:58;;;;;;;7.75;6.15;;;7.50;80.40;;;;;;5073132;28;20276;-63
2021/10/18 06:37:25;;;;;;;6.75;5.22;;;7.70;80.40;;;;;;5073061;28;20267;-62
2021/10/18 06:39:52;;;;;;;6.63;5.57;;;7.90;80.60;;;;;;5073170;28;20225;-62
2021/10/18 06:42:19;;;;;;;12.77;5.10;;;8.20;80.00;;;;;;5072835;28;20301;-63
2021/10/18 06:44:47;;;;;;;9.02;7.38;;;8.40;78.80;;;;;;5072825;28;20280;-63
2021/10/18 06:47:17;;;;;;;7.32;4.85;;;8.60;78.30;;;;;;5072704;28;20308;-62
2021/10/18 06:49:44;;;;;;;5.88;4.47;;;8.90;77.80;;;;;;5072800;28;20280;-64
2021/10/18 06:52:11;;;;;;;5.07;3.92;;;9.20;77.20;;;;;;5073100;28;20284;-64
2021/10/18 06:54:41;;;;;;;6.47;4.65;;;9.60;75.80;;;;;;5072921;28;20285;-63
2021/10/18 06:57:08;;;;;;;10.20;6.40;;;9.80;73.90;;;;;;5072865;28;20189;-64
2021/10/18 06:59:35;;;;;;;9.25;6.55;;;10.20;72.60;;;;;;5072944;28;20277;-64
2021/10/18 07:02:04;;;;;;;7.85;6.35;;;10.60;69.50;;;;;;5073073;28;20742;-64
2021/10/18 07:04:31;;;;;;;8.80;5.80;;;11.00;67.90;;;;;;5072759;28;20276;-64
2021/10/18 07:07:02;;;;;;;9.77;6.78;;;11.50;67.30;;;;;;5072876;28;20296;-64
2021/10/18 07:09:29;;;;;;;9.10;6.55;;;12.20;67.50;;;;;;5072609;28;20218;-64
2021/10/18 07:11:56;;;;;;;9.82;8.00;;;12.80;64.80;;;;;;5072861;28;20233;-63
2021/10/18 07:14:25;;;;;;;8.85;5.60;;;13.30;59.40;;;;;;5072475;28;20272;-64
2021/10/18 07:16:54;;;;;;;7.28;5.60;;;13.70;59.00;;;;;;5073014;28;20296;-64
2021/10/18 07:19:23;;;;;;;6.85;4.63;;;14.20;59.80;;;;;;5072704;28;20281;-63
2021/10/18 07:21:50;;;;;;;10.05;5.60;;;14.80;58.10;;;;;;5072655;28;20248;-63
2021/10/18 07:24:17;;;;;;;5.53;5.00;;;15.40;56.30;;;;;;5072813;28;20233;-63
2021/10/18 07:26:47;;;;;;;10.85;6.90;;;16.00;54.70;;;;;;5072510;28;20193;-64
2021/10/18 07:29:14;;;;;;;5.90;4.78;;;16.60;52.90;;;;;;5072647;28;20201;-64
2021/10/18 07:31:43;;;;;;;5.93;4.60;;;17.50;51.50;;;;;;5072649;28;20711;-64
2021/10/18 07:34:14;;;;;;;6.50;4.70;;;18.40;50.10;;;;;;5072525;28;20511;-63
2021/10/18 07:36:48;;;;;;;5.20;4.53;;;19.40;46.90;;;;;;5072506;28;21058;-65
2021/10/18 07:39:16;;;;;;;6.60;4.03;;;20.40;45.10;;;;;;5072610;28;20454;-65
2021/10/18 07:41:50;;;;;;;5.43;4.53;;;21.40;42.30;;;;;;5072543;28;20464;-65
2021/10/18 07:44:17;;;;;;;5.33;4.83;;;22.40;40.20;;;;;;5072294;28;20524;-65
2021/10/18 07:46:45;;;;;;;4.60;3.43;;;23.30;38.40;;;;;;5072520;28;20544;-65
2021/10/18 07:49:13;;;;;;;4.50;3.30;;;24.20;37.40;;;;;;5072376;28;20436;-64
2021/10/18 07:51:42;;;;;;;4.70;3.40;;;25.10;34.60;;;;;;5072637;28;20522;-64
2021/10/18 07:54:11;;;;;;;3.77;3.37;;;25.80;32.90;;;;;;5072527;28;20432;-64
2021/10/18 07:56:40;;;;;;;5.00;3.53;;;26.60;31.90;;;;;;5072517;28;20854;-64
2021/10/18 07:59:09;;;;;;;5.13;3.43;;;27.30;30.00;;;;;;5072394;28;20802;-64
2021/10/18 08:01:36;;;;;;;6.80;3.20;;;28.00;28.80;;;;;;5074967;28;20482;-64
2021/10/18 08:04:03;;;;;;;4.97;4.33;;;28.60;27.90;;;;;;5075938;28;20522;-65
2021/10/18 08:06:30;;;;;;;5.37;3.70;;;29.30;27.10;;;;;;5075866;28;20531;-64
2021/10/18 08:09:00;;;;;;;5.87;3.30;;;30.00;26.20;;;;;;5075586;28;20491;-65
2021/10/18 08:11:27;;;;;;;4.80;3.00;;;30.80;25.30;;;;;;5075811;28;20446;-64
2021/10/18 08:13:58;;;;;;;4.80;4.30;;;31.60;24.20;;;;;;5075725;28;20432;-64
2021/10/18 08:16:25;;;;;;;5.40;3.90;;;32.20;23.20;;;;;;5075830;28;20470;-65
2021/10/18 08:18:52;;;;;;;4.00;3.57;;;33.00;22.40;;;;;;5075648;28;20440;-65
2021/10/18 08:21:19;;;;;;;4.40;3.43;;;33.60;21.60;;;;;;5075726;28;20440;-65
2021/10/18 08:23:46;;;;;;;4.30;3.10;;;34.10;21.10;;;;;;5075783;28;20901;-64
2021/10/18 08:26:15;;;;;;;4.97;3.53;;;34.80;20.90;;;;;;5075452;28;20523;-65
2021/10/18 08:28:43;;;;;;;4.07;3.10;;;35.50;20.20;;;;;;5075688;28;20566;-65
2021/10/18 08:31:13;;;;;;;4.80;4.07;;;36.20;19.70;;;;;;5075426;28;20474;-65
2021/10/18 08:33:41;;;;;;;3.83;3.43;;;36.80;18.90;;;;;;5075794;28;20472;-65
2021/10/18 08:36:10;;;;;;;4.30;3.70;;;37.50;18.30;;;;;;5075611;28;20523;-64
2021/10/18 08:41:25;;;;;;;4.40;4.00;;;38.70;17.20;;;;;;5073625;28;20458;-65
2021/10/18 08:46:37;;;;;;;5.37;4.83;;;39.60;16.40;;;;;;5075430;28;20482;-64
2021/10/18 08:49:04;;;;;;;5.43;4.50;;;40.40;15.50;;;;;;5075093;28;20519;-66
2021/10/18 08:51:31;;;;;;;6.50;5.90;;;40.90;15.20;;;;;;5075138;28;20456;-65
2021/10/18 08:53:58;;;;;;;6.13;4.50;;;41.30;14.70;;;;;;5075107;28;20838;-65
2021/10/18 08:56:26;;;;;;;5.33;4.63;;;41.70;14.20;;;;;;5075317;28;20523;-65
2021/10/18 08:58:53;;;;;;;5.03;4.50;;;42.20;14.10;;;;;;5074948;28;20523;-65
2021/10/18 09:01:21;;;;;;;5.10;4.60;;;42.60;13.70;;;;;;5075028;28;20535;-65
2021/10/18 09:03:48;;;;;;;5.00;4.50;;;42.90;13.70;;;;;;5075021;28;20475;-65
2021/10/18 09:06:21;;;;;;;5.50;4.47;;;43.20;13.00;;;;;;5074513;28;20487;-65
2021/10/18 09:08:55;;;;;;;5.17;4.53;;;43.50;13.00;;;;;;5074651;28;20566;-64
2021/10/18 09:11:25;;;;;;;11.00;4.60;;;43.90;12.70;;;;;;5074283;28;20834;-65
2021/10/18 09:14:02;;;;;;;5.30;4.83;;;44.40;12.50;;;;;;5073936;28;20486;-65
2021/10/18 09:16:30;;;;;;;5.00;4.50;;;44.80;12.50;;;;;;5074752;28;20946;-64
2021/10/18 09:19:02;;;;;;;5.00;4.50;;;45.00;12.50;;;;;;5074480;28;20575;-65
2021/10/18 09:21:31;;;;;;;5.50;4.87;;;45.30;11.60;;;;;;5074725;28;20478;-65
2021/10/18 09:24:00;;;;;;;6.10;4.20;;;45.40;11.50;;;;;;5074519;28;20515;-65
2021/10/18 09:26:28;;;;;;;4.87;4.37;;;45.70;11.30;;;;;;5074460;28;20444;-65
2021/10/18 09:28:56;;;;;;;4.80;4.33;;;45.80;11.20;;;;;;5074462;28;20439;-65
2021/10/18 09:31:26;;;;;;;5.63;4.37;;;46.00;10.90;;;;;;5074391;28;20473;-65
2021/10/18 09:34:03;;;;;;;6.53;5.20;;;46.30;11.00;;;;;;5074380;28;20814;-65
2021/10/18 09:36:32;;;;;;;5.03;4.30;;;46.70;10.70;;;;;;5074063;28;20973;-65
2021/10/18 09:39:17;;;;;;;5.23;4.77;;;47.00;10.60;;;;;;5074193;28;20504;-66
2021/10/18 09:41:55;;;;;;;6.37;4.63;;;47.10;10.50;;;;;;5074602;28;20825;-66
2021/10/18 09:44:32;;;;;;;5.80;5.20;;;47.30;10.80;;;;;;5074144;28;20446;-65
2021/10/18 09:47:40;;;;;;;6.40;5.80;;;47.40;10.40;;;;;;5074267;28;20442;-64
2021/10/18 10:52:54;;;;;;;8.00;7.30;;;50.80;8.40;;;;;;5073165;28;20431;-65
2021/10/18 10:55:24;;;;;;;7.50;6.00;;;51.00;8.40;;;;;;5073028;28;20945;-65
2021/10/18 10:57:57;;;;;;;7.83;7.10;;;51.20;8.40;;;;;;5072812;28;20570;-65
2021/10/18 11:00:32;;;;;;;7.30;6.17;;;51.40;8.10;;;;;;5073020;28;20507;-65
2021/10/18 11:03:35;;;;;;;6.83;6.23;;;51.70;8.00;;;;;;5073012;28;20467;-65
2021/10/18 11:06:03;;;;;;;6.37;5.87;;;52.10;7.90;;;;;;5062836;28;20456;-64
2021/10/18 11:08:31;;;;;;;6.27;5.67;;;52.20;7.70;;;;;;5072681;28;20478;-65
2021/10/18 11:11:09;;;;;;;6.03;5.43;;;51.80;7.20;;;;;;5072813;28;20862;-64
2021/10/18 11:13:43;;;;;;;6.90;6.20;;;51.70;7.40;;;;;;5073046;28;20534;-65
2021/10/18 11:16:10;;;;;;;6.63;6.03;;;51.50;7.80;;;;;;5073188;28;20471;-64
2021/10/18 11:18:38;;;;;;;8.03;5.40;;;51.30;8.00;;;;;;5072824;28;20479;-65
2021/10/18 11:21:13;;;;;;;5.90;5.40;;;51.10;7.80;;;;;;5072810;28;20973;-64
2021/10/18 11:23:57;;;;;;;6.50;5.90;;;50.90;7.90;;;;;;5072679;28;20518;-65
2021/10/18 11:26:25;;;;;;;6.90;6.30;;;51.20;8.10;;;;;;5073014;28;20436;-65
2021/10/18 11:28:54;;;;;;;6.10;5.60;;;51.40;7.60;;;;;;5072691;28;20447;-65
2021/10/18 11:31:26;;;;;;;10.83;5.87;;;50.90;7.60;;;;;;5072530;28;20445;-65
2021/10/18 11:34:09;;;;;;;6.03;5.50;;;51.10;7.60;;;;;;5072746;28;20440;-65
2021/10/18 11:36:38;;;;;;;6.13;5.63;;;50.90;7.60;;;;;;5075510;28;20440;-64
2021/10/18 11:39:18;;;;;;;6.30;5.70;;;51.10;8.00;;;;;;5076653;28;20493;-64
2021/10/18 11:42:13;;;;;;;6.50;5.90;;;51.30;7.60;;;;;;5076571;28;20786;-64
2021/10/18 11:44:59;;;;;;;6.80;6.00;;;51.10;7.40;;;;;;5041047;28;20793;-65
2021/10/18 11:47:34;;;;;;;6.33;5.73;;;50.50;7.40;;;;;;5076463;28;20848;-64
2021/10/18 11:50:14;;;;;;;5.50;5.00;;;50.30;8.30;;;;;;5076391;28;20518;-65
2021/10/18 11:52:44;;;;;;;5.77;5.27;;;50.30;7.80;;;;;;5076438;28;20439;-64
2021/10/18 11:55:14;;;;;;;5.50;5.00;;;50.10;7.80;;;;;;5076342;28;20462;-65
2021/10/18 11:57:45;;;;;;;6.00;5.40;;;49.90;8.20;;;;;;5076175;28;20853;-65
2021/10/18 12:00:18;;;;;;;6.80;6.10;;;49.90;8.00;;;;;;5076259;28;20432;-65
2021/10/18 12:02:46;;;;;;;5.40;4.73;;;49.90;8.00;;;;;;5075837;28;20918;-65
2021/10/18 12:05:14;;;;;;;5.57;5.03;;;49.90;8.40;;;;;;5075943;28;20463;-65
2021/10/18 12:07:43;;;;;;;5.27;4.77;;;49.80;8.30;;;;;;5076153;28;20944;-65
2021/10/18 12:10:23;;;;;;;5.93;5.43;;;49.40;7.90;;;;;;5075776;28;20499;-64
2021/10/18 12:13:20;;;;;;;6.30;4.90;;;49.30;8.40;;;;;;5075974;28;20918;-65
2021/10/18 12:16:10;;;;;;;6.67;5.97;;;49.40;8.20;;;;;;5041118;28;20447;-65
2021/10/18 12:18:44;;;;;;;4.97;4.47;;;49.30;8.30;;;;;;5075845;28;20566;-64
2021/10/18 12:21:13;;;;;;;5.37;4.87;;;49.10;8.10;;;;;;5075570;28;20485;-64
2021/10/18 12:23:52;;;;;;;5.40;4.40;;;48.70;8.30;;;;;;5075865;28;20527;-65
2021/10/18 12:26:21;;;;;;;5.77;5.17;;;48.60;8.40;;;;;;5075432;28;20509;-65
2021/10/18 12:28:53;;;;;;;4.97;4.47;;;48.50;8.40;;;;;;5075730;28;20523;-64
2021/10/18 12:31:39;;;;;;;5.13;4.73;;;48.50;8.70;;;;;;5075735;28;20519;-64
2021/10/18 12:34:13;;;;;;;8.70;5.13;;;48.40;8.60;;;;;;5075596;28;20630;-64
2021/10/18 12:36:48;;;;;;;5.90;5.17;;;47.90;8.70;;;;;;5075467;28;20523;-64
2021/10/18 12:39:26;;;;;;;5.83;5.23;;;47.50;8.70;;;;;;5075616;28;20587;-65
2021/10/18 12:41:53;;;;;;;4.67;4.17;;;46.90;9.00;;;;;;5075430;28;20518;-64
2021/10/18 12:44:29;;;;;;;5.33;4.80;;;46.50;9.30;;;;;;5075338;28;20519;-64
2021/10/18 12:46:58;;;;;;;5.20;4.73;;;46.00;9.60;;;;;;5074957;28;20974;-64
2021/10/18 12:49:28;;;;;;;8.20;5.50;;;45.40;9.90;;;;;;5075055;28;20846;-65
2021/10/18 12:51:56;;;;;;;6.23;5.67;;;45.10;9.90;;;;;;5075217;28;21001;-65
2021/10/18 12:54:28;;;;;;;8.03;6.27;;;44.80;10.20;;;;;;5075038;28;20478;-64
2021/10/18 12:56:59;;;;;;;8.43;5.90;;;44.50;10.20;;;;;;5075155;28;20514;-64
2021/10/18 12:59:28;;;;;;;6.37;5.77;;;44.10;10.70;;;;;;5074898;28;20570;-64
2021/10/18 13:02:16;;;;;;;6.10;5.53;;;43.70;10.90;;;;;;5075248;28;20463;-65
2021/10/18 13:04:59;;;;;;;7.67;5.90;;;42.70;11.10;;;;;;5074843;28;20437;-65
2021/10/18 13:07:26;;;;;;;6.73;6.03;;;41.40;11.60;;;;;;5074833;28;20436;-64
2021/10/18 13:09:53;;;;;;;7.53;6.23;;;39.80;12.40;;;;;;5074528;28;20507;-65
2021/10/18 13:12:22;;;;;;;6.43;5.83;;;38.00;13.20;;;;;;5074929;28;20519;-64
2021/10/18 13:14:49;;;;;;;6.47;5.87;;;36.30;14.20;;;;;;5074726;28;20436;-64
2021/10/18 13:17:18;;;;;;;6.73;6.03;;;35.00;15.50;;;;;;5074733;28;20844;-65
2021/10/18 13:19:45;;;;;;;6.07;5.47;;;34.30;15.80;;;;;;5074231;28;20515;-63
2021/10/18 13:22:14;;;;;;;6.00;5.40;;;33.10;17.20;;;;;;5074731;28;20444;-64
2021/10/18 13:24:41;;;;;;;8.87;6.13;;;32.30;17.80;;;;;;5074676;28;20523;-64
2021/10/18 13:27:10;;;;;;;6.97;5.57;;;31.50;18.80;;;;;;5074524;28;20577;-63
2021/10/18 13:29:37;;;;;;;6.20;5.57;;;30.50;19.90;;;;;;5074379;28;20531;-64
2021/10/18 13:32:04;;;;;;;7.27;6.00;;;29.60;20.40;;;;;;5074510;28;20519;-64
2021/10/18 13:34:34;;;;;;;8.03;4.97;;;29.00;21.40;;;;;;5074245;28;20487;-63
2021/10/18 13:37:03;;;;;;;6.47;5.27;;;28.30;21.70;;;;;;5074391;28;20531;-63
2021/10/18 13:39:35;;;;;;;7.07;5.67;;;27.80;23.10;;;;;;5074063;28;20669;-63
2021/10/18 13:42:07;;;;;;;6.77;4.90;;;27.20;23.70;;;;;;5074216;28;20525;-63
2021/10/18 13:44:34;;;;;;;6.47;5.13;;;26.60;24.20;;;;;;5074175;28;20476;-63
2021/10/18 13:47:01;;;;;;;9.03;5.50;;;26.00;25.00;;;;;;5074153;28;20529;-64
2021/10/18 13:49:29;;;;;;;7.13;5.77;;;25.60;26.30;;;;;;5073881;28;20464;-63
2021/10/18 13:51:57;;;;;;;7.97;5.90;;;25.10;26.60;;;;;;5073739;28;20940;-63
2021/10/18 13:54:24;;;;;;;6.90;5.67;;;24.70;27.30;;;;;;5073768;28;20478;-63
2021/10/18 13:56:51;;;;;;;6.77;5.93;;;24.30;27.80;;;;;;5073668;28;20518;-63
2021/10/18 13:59:19;;;;;;;6.93;5.53;;;24.00;27.80;;;;;;5073210;28;20483;-64
2021/10/18 14:01:46;;;;;;;8.83;6.40;;;23.70;28.60;;;;;;5073717;28;20847;-63
2021/10/18 14:04:19;;;;;;;7.60;5.80;;;23.40;28.50;;;;;;5073812;28;20993;-63
2021/10/18 14:06:47;;;;;;;8.93;5.00;;;23.10;29.10;;;;;;5073555;28;20447;-63
2021/10/18 14:09:16;;;;;;;7.83;5.20;;;22.80;28.80;;;;;;5073407;28;20507;-63
2021/10/18 14:11:43;;;;;;;8.07;6.33;;;22.60;29.80;;;;;;5073524;28;20428;-63
2021/10/18 14:14:12;;;;;;;6.57;4.93;;;22.30;30.20;;;;;;5073566;28;20527;-62